createdAt,value
2022-08-27T00:02:09.924Z,73.22
2022-08-27T00:04:39.196Z,73.11
2022-08-27T00:07:08.274Z,73.28
2022-08-27T00:09:36.988Z,73.13
2022-08-27T00:12:07.057Z,72.97
2022-08-27T00:14:40.446Z,73.11
2022-08-27T00:17:09.365Z,72.73
2022-08-27T00:19:38.111Z,73.34
2022-08-27T00:22:10.251Z,72.76
2022-08-27T00:24:46.389Z,72.97
2022-08-27T00:27:17.837Z,72.83
2022-08-27T00:29:47.433Z,72.69
2022-08-27T00:32:15.833Z,72.84
2022-08-27T00:34:44.081Z,72.77
2022-08-27T00:37:12.489Z,72.55
2022-08-27T00:39:40.674Z,72.78
2022-08-27T00:42:09.366Z,72.62
2022-08-27T00:44:38.803Z,73.09
2022-08-27T00:47:14.238Z,73.30
2022-08-27T00:49:48.115Z,73.22
2022-08-27T00:52:23.365Z,73.41
2022-08-27T00:54:56.219Z,73.42
2022-08-27T00:57:24.534Z,73.54
2022-08-27T00:59:54.045Z,73.25
2022-08-27T01:02:29.342Z,73.77
2022-08-27T01:05:02.835Z,73.50
2022-08-27T01:07:34.813Z,73.82
2022-08-27T01:10:06.069Z,73.92
2022-08-27T01:12:35.151Z,73.96
2022-08-27T01:15:12.890Z,73.94
2022-08-27T01:17:46.620Z,74.49
2022-08-27T01:20:19.975Z,74.65
2022-08-27T01:22:58.441Z,74.87
2022-08-27T01:25:28.755Z,75.35
2022-08-27T01:27:59.453Z,75.76
2022-08-27T01:30:28.721Z,75.95
2022-08-27T01:32:57.778Z,76.22
2022-08-27T01:35:26.969Z,76.41
2022-08-27T01:37:57.128Z,76.55
2022-08-27T01:40:27.106Z,76.91
2022-08-27T01:42:58.433Z,77.34
2022-08-27T01:45:29.759Z,77.47
2022-08-27T01:47:59.244Z,77.64
2022-08-27T01:50:31.803Z,77.93
2022-08-27T01:53:04.188Z,77.93
2022-08-27T01:55:34.003Z,78.20
2022-08-27T01:58:02.383Z,78.44
2022-08-27T02:00:34.987Z,78.54
2022-08-27T02:03:03.625Z,78.74
2022-08-27T02:05:32.130Z,78.67
2022-08-27T02:08:15.864Z,78.54
2022-08-27T02:10:51.801Z,78.04
2022-08-27T02:13:19.986Z,78.30
2022-08-27T02:15:48.570Z,78.25
2022-08-27T02:18:17.411Z,78.26
2022-08-27T02:20:48.056Z,78.07
2022-08-27T02:23:17.214Z,78.00
2022-08-27T02:25:47.693Z,78.00
2022-08-27T02:28:16.333Z,77.83
2022-08-27T02:30:46.714Z,77.74
2022-08-27T02:33:15.264Z,77.68
2022-08-27T02:35:44.315Z,77.47
2022-08-27T02:38:14.000Z,77.46
2022-08-27T02:40:42.250Z,77.50
2022-08-27T02:43:16.131Z,77.21
2022-08-27T02:45:54.047Z,77.62
2022-08-27T02:48:23.164Z,77.75
2022-08-27T02:50:51.617Z,77.30
2022-08-27T02:53:20.040Z,77.34
2022-08-27T02:55:48.685Z,77.36
2022-08-27T02:58:18.100Z,77.25
2022-08-27T03:00:46.547Z,77.14
2022-08-27T03:03:15.772Z,77.28
2022-08-27T03:05:43.925Z,77.10
2022-08-27T03:08:12.348Z,77.04
2022-08-27T03:10:41.117Z,76.95
2022-08-27T03:13:09.242Z,76.88
2022-08-27T03:15:39.461Z,76.97
2022-08-27T03:18:18.604Z,77.19
2022-08-27T03:20:50.710Z,77.37
2022-08-27T03:23:22.283Z,77.09
2022-08-27T03:25:53.365Z,77.25
2022-08-27T03:28:23.827Z,77.18
2022-08-27T03:30:58.469Z,77.20
2022-08-27T03:33:27.226Z,77.41
2022-08-27T03:35:55.557Z,77.18
2022-08-27T03:38:25.677Z,77.20
2022-08-27T03:40:54.437Z,77.27
2022-08-27T03:43:24.035Z,77.19
2022-08-27T03:46:00.534Z,76.77
2022-08-27T03:48:30.936Z,77.09
2022-08-27T03:50:59.270Z,77.10
2022-08-27T03:53:28.269Z,76.81
2022-08-27T03:55:56.357Z,76.60
2022-08-27T03:58:24.459Z,76.78
2022-08-27T04:00:54.062Z,76.63
2022-08-27T04:03:22.373Z,76.41
2022-08-27T04:05:54.916Z,76.43
2022-08-27T04:08:23.592Z,76.40
2022-08-27T04:10:53.676Z,76.31
2022-08-27T04:13:23.192Z,76.27
2022-08-27T04:15:55.366Z,76.29
2022-08-27T04:18:23.723Z,76.54
2022-08-27T04:20:53.481Z,76.89
2022-08-27T04:23:22.269Z,77.19
2022-08-27T04:25:50.476Z,77.31
2022-08-27T04:28:18.626Z,77.29
2022-08-27T04:30:50.221Z,77.69
2022-08-27T04:33:19.672Z,77.72
2022-08-27T04:35:47.862Z,77.94
2022-08-27T04:38:15.968Z,77.90
2022-08-27T04:41:01.545Z,78.18
2022-08-27T04:43:29.909Z,77.98
2022-08-27T04:45:58.059Z,78.53
2022-08-27T04:48:27.866Z,78.31
2022-08-27T04:50:55.971Z,78.43
2022-08-27T04:53:24.461Z,78.46
2022-08-27T04:55:55.931Z,78.59
2022-08-27T04:58:26.142Z,78.19
2022-08-27T05:00:59.960Z,78.63
2022-08-27T05:03:30.175Z,78.85
2022-08-27T05:06:02.841Z,78.75
2022-08-27T05:08:32.191Z,78.88
2022-08-27T05:11:00.478Z,78.65
2022-08-27T05:13:29.608Z,78.80
2022-08-27T05:16:03.591Z,78.66
2022-08-27T05:18:41.336Z,78.79
2022-08-27T05:21:19.609Z,78.71
2022-08-27T05:23:48.093Z,79.03
2022-08-27T05:26:16.730Z,78.67
2022-08-27T05:28:45.191Z,78.76
2022-08-27T05:31:15.423Z,78.68
2022-08-27T05:33:45.257Z,78.67
2022-08-27T05:36:19.725Z,78.82
2022-08-27T05:38:49.331Z,78.91
2022-08-27T05:41:20.850Z,78.46
2022-08-27T05:43:50.706Z,78.66
2022-08-27T05:46:25.130Z,78.61
2022-08-27T05:48:58.314Z,78.35
2022-08-27T05:51:29.994Z,78.06
2022-08-27T05:54:04.556Z,78.06
2022-08-27T05:56:37.588Z,77.97
2022-08-27T05:59:24.660Z,77.85
2022-08-27T06:01:55.822Z,77.53
2022-08-27T06:04:26.485Z,77.29
2022-08-27T06:06:55.347Z,77.27
2022-08-27T06:09:25.768Z,76.98
2022-08-27T06:11:55.600Z,76.82
2022-08-27T06:14:24.370Z,76.51
2022-08-27T06:16:52.693Z,76.01
2022-08-27T06:19:21.034Z,75.63
2022-08-27T06:22:01.300Z,75.24
2022-08-27T06:24:40.363Z,74.62
2022-08-27T06:27:11.243Z,74.30
2022-08-27T06:29:40.264Z,73.96
2022-08-27T06:32:09.543Z,73.68
2022-08-27T06:34:38.334Z,73.43
2022-08-27T06:37:08.478Z,72.85
2022-08-27T06:39:37.776Z,72.24
2022-08-27T06:42:13.286Z,71.61
2022-08-27T06:44:42.079Z,70.74
2022-08-27T06:47:10.351Z,70.40
2022-08-27T06:49:43.416Z,69.53
2022-08-27T06:52:15.989Z,69.23
2022-08-27T06:54:44.981Z,68.88
2022-08-27T06:57:13.119Z,68.36
2022-08-27T06:59:41.205Z,67.81
2022-08-27T07:02:09.687Z,67.34
2022-08-27T07:04:38.507Z,67.19
2022-08-27T07:07:08.049Z,66.64
2022-08-27T07:09:38.445Z,66.34
2022-08-27T07:12:07.616Z,66.30
2022-08-27T07:14:38.274Z,65.72
2022-08-27T07:17:10.714Z,65.51
2022-08-27T07:19:40.841Z,65.13
2022-08-27T07:22:10.815Z,64.88
2022-08-27T07:24:41.030Z,64.31
2022-08-27T07:27:10.797Z,64.19
2022-08-27T07:29:39.910Z,63.75
2022-08-27T07:32:08.141Z,63.53
2022-08-27T07:34:36.500Z,63.11
2022-08-27T07:37:04.842Z,62.77
2022-08-27T07:39:33.079Z,62.44
2022-08-27T07:42:19.958Z,62.61
2022-08-27T07:44:48.039Z,62.47
2022-08-27T07:47:16.278Z,62.33
2022-08-27T07:49:44.398Z,62.20
2022-08-27T07:52:13.587Z,61.20
2022-08-27T07:54:42.174Z,60.37
2022-08-27T07:57:12.585Z,59.58
2022-08-27T07:59:40.801Z,59.38
2022-08-27T08:02:08.993Z,59.36
2022-08-27T08:04:37.151Z,59.09
2022-08-27T08:07:06.640Z,58.69
2022-08-27T08:09:34.929Z,58.16
2022-08-27T08:12:03.473Z,58.20
2022-08-27T08:14:33.490Z,58.11
2022-08-27T08:17:02.890Z,57.83
2022-08-27T08:19:33.999Z,57.10
2022-08-27T08:22:05.708Z,57.08
2022-08-27T08:24:34.915Z,56.83
2022-08-27T08:27:07.216Z,56.55
2022-08-27T08:29:38.036Z,55.92
2022-08-27T08:32:07.363Z,55.18
2022-08-27T08:34:36.800Z,55.06
2022-08-27T08:37:06.779Z,54.54
2022-08-27T08:39:36.287Z,54.12
2022-08-27T08:42:08.438Z,54.13
2022-08-27T08:44:43.245Z,54.20
2022-08-27T08:47:16.770Z,54.03
2022-08-27T08:49:52.951Z,53.94
2022-08-27T08:52:33.827Z,53.77
2022-08-27T08:55:16.486Z,53.90
2022-08-27T08:57:53.258Z,53.55
2022-08-27T09:00:23.100Z,53.07
2022-08-27T09:02:55.546Z,52.81
2022-08-27T09:05:27.859Z,52.38
2022-08-27T09:08:31.938Z,52.17
2022-08-27T09:11:08.236Z,52.45
2022-08-27T09:13:42.814Z,52.67
2022-08-27T09:16:12.318Z,52.19
2022-08-27T09:18:45.453Z,51.89
2022-08-27T09:21:28.295Z,52.09
2022-08-27T09:24:14.937Z,51.88
2022-08-27T09:26:45.674Z,51.96
2022-08-27T09:29:19.809Z,51.49
2022-08-27T09:31:56.766Z,51.29
2022-08-27T09:34:27.458Z,51.02
2022-08-27T09:37:06.764Z,51.00
2022-08-27T09:39:43.785Z,51.08
2022-08-27T09:42:31.579Z,50.81
2022-08-27T09:45:09.191Z,49.89
2022-08-27T09:47:47.292Z,50.05
2022-08-27T09:50:18.738Z,49.74
2022-08-27T09:52:55.255Z,49.85
2022-08-27T09:55:44.765Z,49.87
2022-08-27T09:58:21.735Z,49.70
2022-08-27T10:00:58.808Z,50.06
2022-08-27T10:03:32.748Z,49.91
2022-08-27T10:06:01.858Z,49.61
2022-08-27T10:08:39.779Z,48.82
2022-08-27T10:11:16.355Z,48.50
2022-08-27T10:13:53.414Z,48.22
2022-08-27T10:16:52.583Z,48.21
2022-08-27T10:19:43.882Z,48.50
2022-08-27T10:22:27.491Z,47.57
2022-08-27T10:25:15.406Z,46.50
2022-08-27T10:27:55.188Z,45.89
2022-08-27T10:30:32.807Z,46.18
2022-08-27T10:33:10.612Z,46.01
2022-08-27T10:35:55.033Z,46.22
2022-08-27T10:38:31.954Z,46.28
2022-08-27T10:41:06.543Z,46.17
2022-08-27T10:44:02.511Z,46.26
2022-08-27T10:47:01.351Z,46.38
2022-08-27T10:49:39.887Z,46.79
2022-08-27T10:52:18.948Z,47.91
2022-08-27T10:54:58.328Z,47.73
2022-08-27T10:57:56.354Z,47.28
2022-08-27T11:00:40.868Z,46.49
2022-08-27T11:03:15.076Z,45.86
2022-08-27T11:05:47.184Z,46.05
2022-08-27T11:08:22.711Z,45.20
2022-08-27T11:10:56.748Z,45.00
2022-08-27T11:13:37.329Z,44.63
2022-08-27T11:16:27.577Z,43.82
2022-08-27T11:19:00.515Z,44.35
2022-08-27T11:21:35.754Z,44.36
2022-08-27T11:24:22.608Z,44.74
2022-08-27T11:26:53.813Z,44.01
2022-08-27T11:29:29.560Z,43.93
2022-08-27T11:32:07.303Z,44.11
2022-08-27T11:34:42.911Z,43.54
2022-08-27T11:37:40.987Z,42.94
2022-08-27T11:40:42.865Z,43.13
2022-08-27T11:43:14.899Z,43.63
2022-08-27T11:45:57.600Z,43.36
2022-08-27T11:48:30.001Z,43.40
2022-08-27T11:51:01.771Z,43.23
2022-08-27T11:53:33.426Z,42.07
2022-08-27T11:56:16.874Z,40.62
2022-08-27T11:58:53.427Z,40.83
2022-08-27T12:01:28.672Z,40.09
2022-08-27T12:04:06.387Z,39.79
2022-08-27T12:06:45.149Z,38.60
2022-08-27T12:09:20.477Z,38.40
2022-08-27T12:12:04.771Z,39.26
2022-08-27T12:14:44.573Z,38.57
2022-08-27T12:17:23.233Z,37.95
2022-08-27T12:20:06.536Z,37.70
2022-08-27T12:23:21.553Z,38.08
2022-08-27T12:25:58.667Z,39.32
2022-08-27T12:28:29.309Z,39.29
2022-08-27T12:30:58.675Z,38.24
2022-08-27T12:33:34.402Z,38.40
2022-08-27T12:36:11.527Z,37.39
2022-08-27T12:38:50.528Z,36.65
2022-08-27T12:41:28.212Z,36.19
2022-08-27T12:44:10.010Z,37.09
2022-08-27T12:46:47.383Z,35.89
2022-08-27T12:49:39.147Z,36.33
2022-08-27T12:52:21.145Z,35.84
2022-08-27T12:55:04.686Z,35.42
2022-08-27T12:57:42.089Z,35.40
2022-08-27T13:00:19.290Z,36.88
2022-08-27T13:03:16.197Z,37.54
2022-08-27T13:05:48.903Z,38.03
2022-08-27T13:08:23.255Z,38.50
2022-08-27T13:10:52.319Z,38.56
2022-08-27T13:13:22.852Z,37.81
2022-08-27T13:15:58.546Z,35.72
2022-08-27T13:18:29.931Z,34.59
2022-08-27T13:21:07.427Z,35.21
2022-08-27T13:23:35.719Z,34.49
2022-08-27T13:26:10.002Z,33.46
2022-08-27T13:28:41.248Z,32.13
2022-08-27T13:31:12.017Z,31.22
2022-08-27T13:33:42.356Z,31.07
2022-08-27T13:36:11.464Z,31.24
2022-08-27T13:38:47.861Z,31.05
2022-08-27T13:41:28.693Z,31.20
2022-08-27T13:43:59.578Z,32.85
2022-08-27T13:46:33.814Z,33.19
2022-08-27T13:49:02.160Z,33.24
2022-08-27T13:51:33.871Z,31.91
2022-08-27T13:54:15.730Z,32.21
2022-08-27T13:57:03.602Z,33.16
2022-08-27T13:59:33.209Z,34.45
2022-08-27T14:02:17.031Z,33.11
2022-08-27T14:04:47.505Z,32.54
2022-08-27T14:07:23.784Z,33.44
2022-08-27T14:09:57.226Z,33.34
2022-08-27T14:12:33.331Z,34.63
2022-08-27T14:15:22.270Z,33.28
2022-08-27T14:17:52.124Z,32.65
2022-08-27T14:20:21.401Z,31.87
2022-08-27T14:22:50.504Z,31.13
2022-08-27T14:25:22.409Z,30.08
2022-08-27T14:27:54.604Z,30.35
2022-08-27T14:30:29.697Z,29.83
2022-08-27T14:33:01.571Z,29.81
2022-08-27T14:35:32.788Z,29.58
2022-08-27T14:38:06.005Z,28.32
2022-08-27T14:40:35.701Z,26.94
2022-08-27T14:43:03.979Z,26.26
2022-08-27T14:45:35.454Z,25.86
2022-08-27T14:48:07.673Z,27.17
2022-08-27T14:50:46.903Z,27.92
2022-08-27T14:53:15.267Z,27.43
2022-08-27T14:55:44.889Z,25.69
2022-08-27T14:58:21.110Z,25.12
2022-08-27T15:00:51.958Z,25.04
2022-08-27T15:03:25.573Z,24.41
2022-08-27T15:05:55.837Z,25.42
2022-08-27T15:08:29.062Z,26.20
2022-08-27T15:10:58.149Z,27.34
2022-08-27T15:13:26.525Z,28.48
2022-08-27T15:15:54.721Z,26.35
2022-08-27T15:18:24.291Z,25.36
2022-08-27T15:20:54.728Z,24.36
2022-08-27T15:23:22.906Z,26.41
2022-08-27T15:25:51.193Z,27.96
2022-08-27T15:28:19.351Z,27.92
2022-08-27T15:30:47.627Z,26.43
2022-08-27T15:33:15.761Z,25.28
2022-08-27T15:35:45.374Z,23.96
2022-08-27T15:38:13.611Z,22.73
2022-08-27T15:40:41.997Z,23.16
2022-08-27T15:43:11.799Z,22.96
2022-08-27T15:45:39.870Z,22.85
2022-08-27T15:48:08.211Z,23.30
2022-08-27T15:50:38.177Z,25.16
2022-08-27T15:53:10.845Z,27.92
2022-08-27T15:55:43.053Z,29.96
2022-08-27T15:58:11.779Z,31.15
2022-08-27T16:00:42.634Z,32.46
2022-08-27T16:03:14.131Z,34.48
2022-08-27T16:05:46.120Z,34.48
2022-08-27T16:08:15.940Z,35.38
2022-08-27T16:10:44.106Z,36.23
2022-08-27T16:13:14.122Z,36.12
2022-08-27T16:15:43.034Z,36.51
2022-08-27T16:18:11.887Z,36.79
2022-08-27T16:20:42.337Z,37.63
2022-08-27T16:23:10.505Z,37.48
2022-08-27T16:25:40.357Z,38.04
2022-08-27T16:28:08.539Z,38.75
2022-08-27T16:30:36.995Z,39.06
2022-08-27T16:33:05.473Z,39.85
2022-08-27T16:35:33.684Z,39.49
2022-08-27T16:38:01.841Z,40.15
2022-08-27T16:40:30.490Z,39.75
2022-08-27T16:43:01.534Z,36.11
2022-08-27T16:45:29.826Z,33.95
2022-08-27T16:48:15.379Z,33.20
2022-08-27T16:50:44.222Z,34.76
2022-08-27T16:53:14.871Z,36.46
2022-08-27T16:55:47.854Z,37.93
2022-08-27T16:58:22.482Z,39.07
2022-08-27T17:00:53.654Z,39.74
2022-08-27T17:03:23.866Z,39.05
2022-08-27T17:05:53.408Z,36.80
2022-08-27T17:08:26.211Z,34.03
2022-08-27T17:10:56.924Z,32.38
2022-08-27T17:13:30.012Z,31.00
2022-08-27T17:16:01.067Z,30.02
2022-08-27T17:18:29.951Z,29.38
2022-08-27T17:21:00.817Z,29.02
2022-08-27T17:23:35.281Z,28.95
2022-08-27T17:26:05.725Z,28.55
2022-08-27T17:28:35.452Z,29.97
2022-08-27T17:31:04.390Z,29.79
2022-08-27T17:33:38.899Z,29.81
2022-08-27T17:36:09.354Z,29.87
2022-08-27T17:38:38.943Z,30.89
2022-08-27T17:41:14.863Z,31.19
2022-08-27T17:43:44.769Z,32.12
2022-08-27T17:46:13.781Z,32.46
2022-08-27T17:48:42.576Z,33.27
2022-08-27T17:51:13.286Z,33.37
2022-08-27T17:53:48.125Z,33.69
2022-08-27T17:56:18.421Z,34.79
2022-08-27T17:58:48.382Z,36.46
2022-08-27T18:01:22.857Z,37.94
2022-08-27T18:03:58.949Z,38.86
2022-08-27T18:06:28.842Z,39.87
2022-08-27T18:08:56.976Z,41.22
2022-08-27T18:11:25.380Z,41.68
2022-08-27T18:14:02.780Z,42.58
2022-08-27T18:16:33.269Z,43.37
2022-08-27T18:19:02.132Z,43.99
2022-08-27T18:21:35.728Z,44.56
2022-08-27T18:24:11.296Z,45.56
2022-08-27T18:26:39.578Z,46.00
2022-08-27T18:29:09.193Z,46.58
2022-08-27T18:31:37.503Z,46.97
2022-08-27T18:34:05.764Z,47.90
2022-08-27T18:36:33.942Z,48.13
2022-08-27T18:39:02.068Z,48.86
2022-08-27T18:41:32.044Z,49.79
2022-08-27T18:44:02.716Z,50.07
2022-08-27T18:46:32.345Z,50.69
2022-08-27T18:49:00.494Z,50.86
2022-08-27T18:51:31.141Z,51.11
2022-08-27T18:54:05.137Z,51.26
2022-08-27T18:56:33.427Z,51.87
2022-08-27T18:59:01.659Z,52.61
2022-08-27T19:01:31.918Z,52.74
2022-08-27T19:04:02.893Z,53.37
2022-08-27T19:06:32.338Z,53.52
2022-08-27T19:09:00.750Z,53.66
2022-08-27T19:11:29.187Z,54.62
2022-08-27T19:13:57.542Z,54.87
2022-08-27T19:16:35.517Z,54.78
2022-08-27T19:19:05.621Z,56.02
2022-08-27T19:21:38.160Z,56.04
2022-08-27T19:24:07.556Z,56.30
2022-08-27T19:26:36.665Z,56.87
2022-08-27T19:29:05.181Z,57.07
2022-08-27T19:31:36.504Z,57.04
2022-08-27T19:34:05.838Z,57.76
2022-08-27T19:36:38.096Z,57.94
2022-08-27T19:39:11.437Z,58.26
2022-08-27T19:41:39.578Z,58.73
2022-08-27T19:44:07.816Z,59.49
2022-08-27T19:46:37.972Z,59.64
2022-08-27T19:49:06.293Z,60.33
2022-08-27T19:51:34.614Z,60.71
2022-08-27T19:54:03.821Z,61.08
2022-08-27T19:56:32.679Z,61.28
2022-08-27T19:59:13.444Z,61.68
2022-08-27T20:01:50.327Z,62.07
2022-08-27T20:04:18.465Z,62.34
2022-08-27T20:06:46.667Z,62.66
2022-08-27T20:09:16.135Z,63.29
2022-08-27T20:11:45.892Z,63.24
2022-08-27T20:14:14.470Z,63.60
2022-08-27T20:16:43.076Z,64.03
2022-08-27T20:19:13.219Z,64.48
2022-08-27T20:21:41.783Z,64.53
2022-08-27T20:24:10.118Z,64.98
2022-08-27T20:26:39.266Z,65.06
2022-08-27T20:29:08.774Z,65.13
2022-08-27T20:31:36.960Z,65.24
2022-08-27T20:34:05.376Z,65.43
2022-08-27T20:36:35.597Z,65.44
2022-08-27T20:39:04.857Z,65.64
2022-08-27T20:41:33.260Z,65.57
2022-08-27T20:44:02.104Z,65.73
2022-08-27T20:46:31.961Z,65.43
2022-08-27T20:49:00.081Z,65.31
2022-08-27T20:51:28.812Z,65.27
2022-08-27T20:53:58.292Z,65.22
2022-08-27T20:56:26.459Z,65.48
2022-08-27T20:59:12.064Z,65.55
2022-08-27T21:01:40.318Z,65.90
2022-08-27T21:04:08.495Z,66.18
2022-08-27T21:06:36.659Z,66.67
2022-08-27T21:09:06.363Z,66.67
2022-08-27T21:11:34.544Z,67.09
2022-08-27T21:14:02.649Z,67.15
2022-08-27T21:16:31.311Z,67.48
2022-08-27T21:18:59.805Z,67.81
2022-08-27T21:21:27.962Z,67.82
2022-08-27T21:23:56.053Z,67.85
2022-08-27T21:26:25.543Z,67.90
2022-08-27T21:28:55.760Z,67.86
2022-08-27T21:31:25.012Z,67.69
2022-08-27T21:33:53.370Z,67.30
2022-08-27T21:36:21.786Z,67.24
2022-08-27T21:38:50.211Z,67.42
2022-08-27T21:41:18.646Z,67.18
2022-08-27T21:43:48.152Z,67.01
2022-08-27T21:46:16.252Z,66.90
2022-08-27T21:48:44.701Z,66.56
2022-08-27T21:51:24.442Z,66.47
2022-08-27T21:53:52.878Z,66.46
2022-08-27T21:56:21.018Z,66.64
2022-08-27T21:58:50.785Z,66.66
2022-08-27T22:01:19.771Z,66.98
2022-08-27T22:03:50.672Z,67.08
2022-08-27T22:06:19.298Z,67.18
2022-08-27T22:08:47.529Z,67.45
2022-08-27T22:11:20.611Z,67.13
2022-08-27T22:13:53.249Z,67.17
2022-08-27T22:16:21.449Z,67.08
2022-08-27T22:18:54.293Z,67.23
2022-08-27T22:21:23.278Z,67.44
2022-08-27T22:23:52.355Z,67.87
2022-08-27T22:26:22.011Z,67.66
2022-08-27T22:28:50.839Z,68.29
2022-08-27T22:31:20.511Z,68.53
2022-08-27T22:33:48.796Z,68.59
2022-08-27T22:36:17.106Z,68.72
2022-08-27T22:38:45.176Z,68.73
2022-08-27T22:41:14.944Z,69.42
2022-08-27T22:43:46.920Z,69.70
2022-08-27T22:46:15.105Z,69.37
2022-08-27T22:48:44.699Z,69.64
2022-08-27T22:51:12.843Z,69.80
2022-08-27T22:53:40.914Z,70.04
2022-08-27T22:56:09.045Z,70.13
2022-08-27T22:58:37.256Z,70.37
2022-08-27T23:01:05.769Z,70.58
2022-08-27T23:03:33.939Z,70.95
2022-08-27T23:06:03.727Z,70.74
2022-08-27T23:08:32.096Z,71.03
2022-08-27T23:11:03.370Z,70.67
2022-08-27T23:13:32.452Z,71.19
2022-08-27T23:16:01.489Z,71.13
2022-08-27T23:18:30.174Z,70.93
2022-08-27T23:20:58.542Z,71.13
2022-08-27T23:23:30.675Z,71.49
2022-08-27T23:26:16.815Z,71.99
2022-08-27T23:28:45.189Z,71.96
2022-08-27T23:31:14.269Z,71.96
2022-08-27T23:33:45.808Z,72.00
2022-08-27T23:36:14.318Z,71.77
2022-08-27T23:38:43.878Z,72.22
2022-08-27T23:41:12.090Z,72.41
2022-08-27T23:43:40.262Z,72.45
2022-08-27T23:46:08.697Z,72.48
2022-08-27T23:48:39.387Z,72.52
2022-08-27T23:51:07.841Z,72.33
2022-08-27T23:53:36.081Z,72.71
2022-08-27T23:56:06.749Z,72.47
2022-08-27T23:58:34.931Z,72.60
